createdAt,value
2019-02-24T00:00:26.367Z,99.90
2019-02-24T00:03:07.729Z,99.90
2019-02-24T00:05:48.221Z,99.90
2019-02-24T00:08:28.702Z,99.90
2019-02-24T00:11:09.858Z,99.90
2019-02-24T00:13:51.287Z,99.90
2019-02-24T00:16:31.957Z,99.90
2019-02-24T00:19:12.724Z,99.90
2019-02-24T00:21:53.806Z,99.90
2019-02-24T00:24:35.072Z,99.90
2019-02-24T00:27:16.055Z,99.90
2019-02-24T00:29:57.041Z,99.90
2019-02-24T00:32:37.846Z,99.90
2019-02-24T00:35:18.562Z,99.90
2019-02-24T00:37:59.960Z,99.90
2019-02-24T00:40:40.740Z,99.90
2019-02-24T00:43:21.257Z,99.90
2019-02-24T00:46:00.350Z,99.90
2019-02-24T00:48:48.323Z,99.90
2019-02-24T00:51:36.662Z,99.90
2019-02-24T00:54:24.613Z,99.90
2019-02-24T00:57:12.540Z,99.90
2019-02-24T01:02:48.915Z,99.90
2019-02-24T01:05:17.596Z,99.90
2019-02-24T01:08:05.524Z,99.90
2019-02-24T01:10:53.433Z,99.90
2019-02-24T01:13:41.381Z,99.90
2019-02-24T01:16:29.292Z,99.90
2019-02-24T01:19:17.228Z,99.90
2019-02-24T01:22:05.169Z,99.90
2019-02-24T01:24:53.082Z,99.90
2019-02-24T01:27:33.963Z,99.90
2019-02-24T01:30:15.153Z,99.90
2019-02-24T01:32:56.369Z,99.90
2019-02-24T01:35:24.932Z,99.90
2019-02-24T01:37:53.489Z,99.90
2019-02-24T01:40:22.092Z,99.90
2019-02-24T01:42:50.654Z,99.90
2019-02-24T01:45:39.176Z,99.90
2019-02-24T01:48:27.075Z,99.90
2019-02-24T01:51:15.010Z,99.90
2019-02-24T01:54:02.918Z,99.90
2019-02-24T01:56:50.842Z,99.90
2019-02-24T01:59:39.312Z,99.90
2019-02-24T02:02:08.028Z,99.90
2019-02-24T02:04:55.928Z,99.90
2019-02-24T02:07:43.851Z,99.90
2019-02-24T02:10:12.416Z,99.90
2019-02-24T02:12:41.013Z,99.90
2019-02-24T02:15:09.719Z,99.90
2019-02-24T02:20:50.741Z,99.90
2019-02-24T02:23:38.677Z,99.90
2019-02-24T02:26:26.592Z,99.90
2019-02-24T02:29:14.557Z,99.90
2019-02-24T02:32:02.569Z,99.90
2019-02-24T02:34:50.519Z,99.90
2019-02-24T02:37:38.417Z,99.90
2019-02-24T02:40:26.349Z,99.90
2019-02-24T02:43:14.397Z,99.90
2019-02-24T02:46:02.338Z,99.90
2019-02-24T02:48:50.281Z,99.90
2019-02-24T02:51:38.183Z,99.90
2019-02-24T02:54:26.117Z,99.90
2019-02-24T02:57:14.048Z,99.90
2019-02-24T03:00:01.949Z,99.90
2019-02-24T03:02:49.889Z,99.90
2019-02-24T03:08:52.077Z,99.90
2019-02-24T03:11:40.012Z,99.90
2019-02-24T03:17:21.688Z,99.90
2019-02-24T03:20:09.685Z,99.90
2019-02-24T03:22:38.261Z,99.90
2019-02-24T03:25:06.822Z,99.90
2019-02-24T03:27:35.420Z,99.90
2019-02-24T03:30:04.153Z,99.90
2019-02-24T03:32:32.716Z,99.90
2019-02-24T03:35:01.326Z,99.90
2019-02-24T03:37:29.880Z,99.90
2019-02-24T03:39:58.449Z,99.90
2019-02-24T03:42:27.815Z,99.90
2019-02-24T03:44:56.391Z,99.90
2019-02-24T03:47:44.313Z,99.90
2019-02-24T03:50:32.222Z,99.90
2019-02-24T03:53:20.215Z,99.90
2019-02-24T03:56:08.184Z,99.90
2019-02-24T03:58:56.185Z,99.90
2019-02-24T04:01:44.150Z,99.90
2019-02-24T04:04:32.456Z,99.90
2019-02-24T04:07:20.390Z,99.90
2019-02-24T04:10:08.312Z,99.90
2019-02-24T04:12:56.214Z,99.90
2019-02-24T04:15:44.148Z,99.90
2019-02-24T04:18:32.060Z,99.90
2019-02-24T04:24:13.801Z,99.90
2019-02-24T04:27:01.755Z,99.90
2019-02-24T04:29:42.513Z,99.90
2019-02-24T04:32:11.094Z,99.90
2019-02-24T04:34:39.655Z,99.90
2019-02-24T04:37:08.219Z,99.90
2019-02-24T04:39:36.816Z,99.90
2019-02-24T04:42:05.385Z,99.90
2019-02-24T04:44:33.953Z,99.90
2019-02-24T04:47:02.545Z,99.90
2019-02-24T04:49:31.140Z,99.90
2019-02-24T04:51:59.703Z,99.90
2019-02-24T04:54:28.266Z,99.90
2019-02-24T05:00:10.061Z,99.90
2019-02-24T05:02:57.993Z,99.90
2019-02-24T05:05:45.892Z,99.90
2019-02-24T05:08:33.836Z,99.90
2019-02-24T05:11:21.736Z,99.90
2019-02-24T05:14:09.665Z,99.90
2019-02-24T05:16:57.578Z,99.90
2019-02-24T05:19:45.500Z,99.90
2019-02-24T05:22:33.423Z,99.90
2019-02-24T05:25:21.426Z,99.90
2019-02-24T05:27:49.973Z,99.90
2019-02-24T05:30:18.535Z,99.90
2019-02-24T05:32:47.126Z,99.90
2019-02-24T05:35:15.816Z,99.90
2019-02-24T05:37:44.383Z,99.90
2019-02-24T05:40:12.971Z,99.90
2019-02-24T05:43:00.906Z,99.90
2019-02-24T05:45:48.834Z,99.90
2019-02-24T05:48:36.758Z,99.90
2019-02-24T05:51:24.686Z,99.90
2019-02-24T05:54:12.605Z,99.90
2019-02-24T05:57:00.528Z,99.90
2019-02-24T06:02:55.489Z,99.90
2019-02-24T06:05:43.546Z,99.90
2019-02-24T06:08:31.579Z,99.90
2019-02-24T06:11:19.554Z,99.90
2019-02-24T06:14:07.476Z,99.90
2019-02-24T06:16:36.847Z,99.90
2019-02-24T06:19:05.548Z,99.90
2019-02-24T06:21:34.319Z,99.90
2019-02-24T06:24:03.118Z,99.90
2019-02-24T06:26:31.724Z,99.90
2019-02-24T06:29:00.287Z,99.90
2019-02-24T06:31:28.875Z,99.90
2019-02-24T06:33:57.606Z,99.90
2019-02-24T06:36:45.492Z,99.90
2019-02-24T06:39:33.404Z,99.90
2019-02-24T06:42:21.343Z,99.90
2019-02-24T06:45:09.616Z,99.90
2019-02-24T06:47:57.556Z,99.90
2019-02-24T06:51:04.724Z,99.90
2019-02-24T06:53:52.662Z,99.90
2019-02-24T06:56:54.716Z,99.90
2019-02-24T06:59:30.281Z,99.90
2019-02-24T07:02:41.729Z,99.90
2019-02-24T07:04:48.450Z,99.90
2019-02-24T07:07:17.019Z,99.90
2019-02-24T07:09:45.601Z,99.90
2019-02-24T07:12:14.161Z,99.90
2019-02-24T07:14:42.762Z,99.90
2019-02-24T07:17:11.374Z,99.90
2019-02-24T07:19:39.912Z,99.90
2019-02-24T07:22:27.842Z,99.90
2019-02-24T07:25:15.910Z,99.90
2019-02-24T07:28:03.962Z,99.90
2019-02-24T07:30:45.697Z,99.90
2019-02-24T07:33:26.876Z,99.90
2019-02-24T07:36:07.658Z,99.90
2019-02-24T07:38:48.457Z,99.90
2019-02-24T07:41:29.509Z,99.90
2019-02-24T07:44:10.376Z,99.90
2019-02-24T07:46:51.527Z,99.90
2019-02-24T07:49:32.097Z,99.90
2019-02-24T07:52:12.444Z,99.90
2019-02-24T07:54:53.653Z,99.90
2019-02-24T07:57:34.659Z,99.90
2019-02-24T08:00:15.201Z,99.90
2019-02-24T08:02:56.416Z,99.90
2019-02-24T08:05:36.928Z,99.90
2019-02-24T08:08:17.905Z,99.90
2019-02-24T08:10:58.280Z,99.90
2019-02-24T08:13:39.116Z,99.90
2019-02-24T08:16:07.696Z,99.90
2019-02-24T08:18:55.633Z,99.90
2019-02-24T08:21:43.566Z,99.90
2019-02-24T08:24:31.504Z,99.90
2019-02-24T08:27:19.407Z,99.90
2019-02-24T08:30:02.535Z,99.90
2019-02-24T08:32:43.452Z,99.90
2019-02-24T08:35:24.344Z,99.90
2019-02-24T08:38:04.981Z,99.90
2019-02-24T08:40:46.100Z,99.90
2019-02-24T08:43:26.480Z,99.90
2019-02-24T08:46:07.207Z,99.90
2019-02-24T08:48:47.631Z,99.90
2019-02-24T08:51:28.362Z,99.90
2019-02-24T08:54:08.749Z,99.90
2019-02-24T08:56:49.245Z,99.90
2019-02-24T08:59:30.493Z,99.90
2019-02-24T09:02:10.857Z,97.60
2019-02-24T09:04:51.636Z,96.10
2019-02-24T09:07:32.628Z,99.90
2019-02-24T09:10:13.204Z,99.60
2019-02-24T09:12:53.904Z,98.50
2019-02-24T09:15:34.544Z,98.40
2019-02-24T09:18:15.246Z,98.90
2019-02-24T09:20:56.548Z,98.70
2019-02-24T09:23:36.951Z,97.90
2019-02-24T09:26:17.777Z,96.40
2019-02-24T09:28:58.705Z,97.10
2019-02-24T09:31:39.458Z,97.30
2019-02-24T09:34:08.015Z,98.20
2019-02-24T09:36:55.987Z,96.80
2019-02-24T09:39:44.036Z,97.20
2019-02-24T09:42:12.636Z,98.30
2019-02-24T09:44:41.208Z,96.40
2019-02-24T09:47:09.949Z,95.50
2019-02-24T09:49:57.884Z,94.30
2019-02-24T09:52:45.818Z,93.60
2019-02-24T09:55:33.749Z,93.60
2019-02-24T09:58:21.653Z,92.60
2019-02-24T10:01:10.952Z,92.10
2019-02-24T10:03:59.753Z,91.90
2019-02-24T10:06:47.660Z,91.10
2019-02-24T10:09:35.702Z,90.20
2019-02-24T10:12:23.544Z,88.00
2019-02-24T10:15:30.801Z,89.20
2019-02-24T10:18:18.717Z,89.70
2019-02-24T10:21:06.684Z,86.80
2019-02-24T10:23:54.580Z,84.80
2019-02-24T10:26:42.520Z,84.80
2019-02-24T10:29:30.559Z,85.20
2019-02-24T10:32:18.437Z,86.60
2019-02-24T10:34:59.260Z,87.20
2019-02-24T10:37:39.734Z,87.30
2019-02-24T10:40:21.020Z,89.60
2019-02-24T10:43:01.992Z,90.10
2019-02-24T10:45:43.248Z,87.70
2019-02-24T10:48:31.169Z,90.60
2019-02-24T10:51:19.096Z,90.30
2019-02-24T10:54:07.049Z,88.30
2019-02-24T11:00:01.854Z,89.80
2019-02-24T11:02:49.809Z,89.00
2019-02-24T11:05:37.727Z,86.30
2019-02-24T11:08:25.732Z,85.90
2019-02-24T11:11:20.852Z,85.10
2019-02-24T11:14:08.801Z,84.90
2019-02-24T11:16:56.742Z,85.30
2019-02-24T11:22:51.548Z,85.30
2019-02-24T11:25:39.456Z,86.80
2019-02-24T11:28:27.400Z,86.80
2019-02-24T11:31:15.341Z,88.20
2019-02-24T11:33:56.135Z,89.00
2019-02-24T11:36:36.849Z,87.40
2019-02-24T11:39:17.252Z,89.00
2019-02-24T11:41:57.692Z,88.60
2019-02-24T11:44:38.127Z,85.40
2019-02-24T11:47:18.584Z,85.00
2019-02-24T11:49:59.864Z,84.40
2019-02-24T11:52:40.518Z,84.20
2019-02-24T11:55:24.161Z,83.90
2019-02-24T11:58:05.375Z,83.00
2019-02-24T12:00:45.909Z,83.30
2019-02-24T12:03:26.965Z,84.50
2019-02-24T12:06:08.325Z,83.40
2019-02-24T12:08:49.169Z,84.40
2019-02-24T12:11:29.645Z,84.30
2019-02-24T12:14:10.646Z,81.90
2019-02-24T12:16:51.684Z,82.60
2019-02-24T12:19:32.301Z,83.50
2019-02-24T12:22:13.132Z,83.10
2019-02-24T12:24:54.023Z,84.70
2019-02-24T12:30:14.009Z,82.30
2019-02-24T12:32:54.969Z,80.90
2019-02-24T12:35:35.821Z,80.30
2019-02-24T12:38:04.407Z,79.80
2019-02-24T12:40:32.976Z,80.30
2019-02-24T12:43:01.583Z,79.10
2019-02-24T12:45:30.144Z,77.90
2019-02-24T12:48:00.352Z,77.30
2019-02-24T12:50:29.012Z,79.80
2019-02-24T12:52:57.598Z,79.20
2019-02-24T12:55:26.235Z,76.60
2019-02-24T12:58:14.166Z,76.40
2019-02-24T13:01:02.137Z,77.00
2019-02-24T13:03:50.072Z,75.40
2019-02-24T13:06:38.004Z,77.10
2019-02-24T13:09:25.940Z,76.90
2019-02-24T13:12:13.844Z,74.20
2019-02-24T13:15:03.428Z,71.90
2019-02-24T13:17:51.737Z,68.70
2019-02-24T13:20:39.670Z,70.10
2019-02-24T13:23:27.585Z,69.20
2019-02-24T13:26:15.525Z,68.30
2019-02-24T13:29:03.461Z,63.90
2019-02-24T13:31:51.364Z,63.50
2019-02-24T13:34:31.968Z,64.50
2019-02-24T13:37:12.667Z,65.00
2019-02-24T13:39:41.264Z,64.50
2019-02-24T13:42:09.868Z,62.90
2019-02-24T13:44:38.441Z,61.90
2019-02-24T13:47:26.388Z,64.10
2019-02-24T13:50:35.017Z,65.90
2019-02-24T13:53:22.958Z,66.80
2019-02-24T13:56:10.821Z,67.90
2019-02-24T13:58:58.728Z,69.10
2019-02-24T14:01:46.684Z,67.60
2019-02-24T14:04:15.248Z,68.40
2019-02-24T14:07:03.184Z,68.60
2019-02-24T14:09:51.117Z,70.30
2019-02-24T14:12:39.136Z,71.10
2019-02-24T14:15:27.105Z,71.00
2019-02-24T14:18:15.056Z,70.90
2019-02-24T14:21:02.978Z,70.90
2019-02-24T14:23:50.916Z,70.40
2019-02-24T14:26:38.822Z,71.40
2019-02-24T14:29:26.748Z,72.10
2019-02-24T14:32:14.687Z,72.60
2019-02-24T14:34:55.713Z,71.40
2019-02-24T14:37:36.207Z,71.70
2019-02-24T14:40:16.692Z,71.90
2019-02-24T14:42:57.143Z,72.60
2019-02-24T14:45:37.519Z,71.10
2019-02-24T14:48:18.817Z,72.40
2019-02-24T14:51:00.111Z,72.60
2019-02-24T14:53:41.041Z,73.00
2019-02-24T14:56:21.749Z,73.70
2019-02-24T14:59:02.722Z,73.30
2019-02-24T15:01:31.289Z,72.70
2019-02-24T15:04:19.220Z,73.00
2019-02-24T15:07:07.989Z,73.30
2019-02-24T15:09:56.724Z,73.60
2019-02-24T15:12:44.697Z,74.10
2019-02-24T15:15:33.813Z,73.60
2019-02-24T15:18:21.705Z,73.20
2019-02-24T15:21:09.636Z,72.90
2019-02-24T15:23:57.541Z,72.50
2019-02-24T15:26:45.500Z,73.20
2019-02-24T15:29:33.405Z,72.80
2019-02-24T15:32:21.378Z,70.70
2019-02-24T15:35:01.966Z,70.70
2019-02-24T15:37:42.925Z,71.20
2019-02-24T15:40:24.170Z,71.20
2019-02-24T15:43:04.481Z,73.70
2019-02-24T15:45:45.129Z,74.40
2019-02-24T15:48:26.935Z,73.50
2019-02-24T15:51:07.469Z,72.80
2019-02-24T15:53:48.388Z,72.00
2019-02-24T15:56:29.597Z,71.50
2019-02-24T15:59:10.755Z,70.90
2019-02-24T16:01:51.926Z,71.30
2019-02-24T16:04:32.562Z,71.70
2019-02-24T16:07:13.704Z,73.10
2019-02-24T16:09:54.342Z,73.00
2019-02-24T16:12:35.244Z,71.10
2019-02-24T16:15:16.453Z,71.80
2019-02-24T16:17:57.204Z,72.30
2019-02-24T16:20:38.316Z,72.20
2019-02-24T16:23:19.419Z,73.20
2019-02-24T16:26:00.542Z,73.30
2019-02-24T16:28:41.561Z,74.30
2019-02-24T16:31:22.807Z,73.30
2019-02-24T16:34:03.215Z,73.10
2019-02-24T16:36:44.425Z,73.20
2019-02-24T16:39:25.615Z,74.00
2019-02-24T16:42:06.380Z,74.50
2019-02-24T16:44:47.793Z,74.90
2019-02-24T16:47:28.381Z,75.20
2019-02-24T16:50:09.431Z,75.30
2019-02-24T16:52:49.994Z,75.80
2019-02-24T16:55:31.094Z,75.70
2019-02-24T16:58:11.897Z,76.10
2019-02-24T17:00:53.047Z,76.90
2019-02-24T17:03:33.930Z,77.50
2019-02-24T17:06:14.630Z,77.40
2019-02-24T17:09:01.414Z,78.20
2019-02-24T17:11:38.693Z,78.50
2019-02-24T17:14:20.059Z,78.40
2019-02-24T17:17:01.756Z,79.50
2019-02-24T17:19:43.309Z,79.80
2019-02-24T17:22:24.288Z,79.70
2019-02-24T17:25:05.440Z,79.60
2019-02-24T17:27:34.036Z,79.50
2019-02-24T17:30:02.628Z,80.80
2019-02-24T17:32:31.278Z,82.10
2019-02-24T17:35:00.504Z,81.70
2019-02-24T17:37:48.520Z,81.40
2019-02-24T17:40:36.615Z,82.60
2019-02-24T17:43:05.159Z,82.90
2019-02-24T17:45:53.096Z,84.30
2019-02-24T17:48:41.004Z,84.50
2019-02-24T17:51:29.077Z,84.80
2019-02-24T17:54:16.989Z,89.40
2019-02-24T17:57:04.923Z,89.90
2019-02-24T18:00:06.975Z,86.90
2019-02-24T18:02:42.408Z,85.90
2019-02-24T18:05:30.389Z,85.30
2019-02-24T18:11:11.512Z,84.80
2019-02-24T18:13:59.405Z,85.30
2019-02-24T18:16:47.474Z,85.40
2019-02-24T18:19:35.988Z,88.40
2019-02-24T18:22:23.920Z,89.20
2019-02-24T18:25:12.128Z,90.00
2019-02-24T18:28:00.064Z,90.30
2019-02-24T18:30:29.781Z,89.60
2019-02-24T18:32:58.449Z,88.80
2019-02-24T18:35:27.014Z,88.20
2019-02-24T18:37:55.596Z,88.80
2019-02-24T18:40:24.264Z,90.00
2019-02-24T18:42:59.794Z,89.90
2019-02-24T18:45:23.051Z,90.90
2019-02-24T18:48:11.000Z,93.40
2019-02-24T18:50:58.891Z,93.10
2019-02-24T18:53:46.827Z,92.60
2019-02-24T18:59:27.993Z,95.40
2019-02-24T19:02:15.931Z,94.30
2019-02-24T19:05:04.020Z,94.10
2019-02-24T19:07:52.030Z,93.60
2019-02-24T19:10:39.964Z,93.90
2019-02-24T19:13:27.967Z,95.10
2019-02-24T19:16:15.868Z,95.30
2019-02-24T19:19:03.909Z,95.10
2019-02-24T19:25:12.886Z,94.90
2019-02-24T19:27:48.335Z,95.30
2019-02-24T19:30:37.084Z,95.70
2019-02-24T19:33:24.984Z,95.90
2019-02-24T19:36:12.927Z,95.80
2019-02-24T19:38:53.803Z,96.20
2019-02-24T19:41:34.632Z,96.50
2019-02-24T19:44:15.011Z,96.70
2019-02-24T19:46:55.904Z,96.90
2019-02-24T19:49:36.280Z,97.20
2019-02-24T19:52:17.046Z,97.50
2019-02-24T19:54:57.924Z,98.00
2019-02-24T19:57:38.459Z,98.50
2019-02-24T20:00:19.342Z,98.70
2019-02-24T20:03:00.253Z,98.70
2019-02-24T20:05:41.434Z,99.30
2019-02-24T20:08:22.248Z,99.50
2019-02-24T20:11:03.356Z,99.80
2019-02-24T20:13:44.571Z,99.90
2019-02-24T20:16:25.586Z,99.90
2019-02-24T20:19:06.125Z,99.90
2019-02-24T20:21:46.598Z,99.90
2019-02-24T20:24:31.276Z,99.90
2019-02-24T20:27:10.448Z,99.90
2019-02-24T20:29:51.832Z,99.90
2019-02-24T20:32:32.768Z,99.90
2019-02-24T20:35:13.158Z,99.90
2019-02-24T20:37:54.320Z,99.90
2019-02-24T20:40:35.390Z,99.90
2019-02-24T20:43:16.300Z,99.90
2019-02-24T20:45:57.447Z,99.90
2019-02-24T20:48:38.557Z,99.90
2019-02-24T20:51:19.390Z,99.90
2019-02-24T20:54:00.305Z,99.90
2019-02-24T20:56:41.623Z,99.90
2019-02-24T20:59:22.025Z,99.90
2019-02-24T21:02:02.637Z,99.90
2019-02-24T21:04:43.212Z,99.90
2019-02-24T21:07:23.564Z,99.90
2019-02-24T21:10:03.905Z,99.90
2019-02-24T21:12:44.845Z,99.90
2019-02-24T21:15:26.132Z,99.90
2019-02-24T21:18:06.754Z,99.90
2019-02-24T21:20:47.346Z,99.90
2019-02-24T21:23:28.393Z,99.90
2019-02-24T21:26:08.801Z,99.90
2019-02-24T21:28:49.328Z,99.90
2019-02-24T21:31:29.877Z,99.90
2019-02-24T21:34:10.889Z,99.90
2019-02-24T21:36:51.629Z,99.90
2019-02-24T21:39:32.173Z,99.90
2019-02-24T21:42:13.441Z,99.90
2019-02-24T21:44:53.844Z,99.90
2019-02-24T21:47:34.333Z,99.90
2019-02-24T21:50:03.345Z,99.90
2019-02-24T21:52:31.944Z,99.90
2019-02-24T21:55:00.512Z,99.90
2019-02-24T21:57:29.064Z,99.90
2019-02-24T21:59:57.648Z,99.90
2019-02-24T22:02:45.582Z,99.90
2019-02-24T22:05:33.498Z,99.90
2019-02-24T22:08:21.437Z,99.90
2019-02-24T22:11:09.340Z,99.90
2019-02-24T22:13:57.282Z,99.90
2019-02-24T22:16:45.181Z,99.90
2019-02-24T22:19:33.123Z,99.90
2019-02-24T22:22:21.028Z,99.90
2019-02-24T22:25:29.720Z,99.90
2019-02-24T22:28:17.685Z,99.90
2019-02-24T22:31:05.596Z,99.90
2019-02-24T22:33:53.510Z,99.90
2019-02-24T22:36:41.433Z,99.90
2019-02-24T22:39:29.339Z,99.90
2019-02-24T22:42:17.308Z,99.90
2019-02-24T22:45:25.974Z,99.90
2019-02-24T22:48:13.869Z,99.90
2019-02-24T22:51:01.805Z,99.90
2019-02-24T22:53:49.712Z,99.90
2019-02-24T22:56:37.646Z,99.90
2019-02-24T22:59:25.549Z,99.90
2019-02-24T23:05:08.388Z,99.90
2019-02-24T23:07:56.331Z,99.90
2019-02-24T23:10:44.302Z,99.90
2019-02-24T23:13:32.232Z,99.90
2019-02-24T23:16:00.791Z,99.90
2019-02-24T23:18:29.384Z,99.90
2019-02-24T23:20:57.940Z,99.90
2019-02-24T23:23:26.529Z,99.90
2019-02-24T23:25:55.094Z,99.90
2019-02-24T23:28:23.698Z,99.90
2019-02-24T23:30:52.256Z,99.90
2019-02-24T23:33:40.543Z,99.90
2019-02-24T23:36:28.432Z,99.90
2019-02-24T23:42:03.748Z,99.90
2019-02-24T23:44:44.944Z,99.90
2019-02-24T23:47:25.420Z,99.90
2019-02-24T23:50:05.881Z,99.90
2019-02-24T23:52:46.874Z,99.90
2019-02-24T23:55:27.824Z,99.90
2019-02-24T23:58:08.597Z,99.90
